sensor_id;sensor_type;location;lat;lon;timestamp;P1;durP1;ratioP1;P2;durP2;ratioP2
20966;SDS011;10642;50.682;18.510;2023-01-08T00:01:04;83.40;;;42.27;;
20966;SDS011;10642;50.682;18.510;2023-01-08T00:03:31;83.63;;;43.50;;
20966;SDS011;10642;50.682;18.510;2023-01-08T00:06:02;79.47;;;42.97;;
20966;SDS011;10642;50.682;18.510;2023-01-08T00:08:30;81.87;;;42.33;;
20966;SDS011;10642;50.682;18.510;2023-01-08T00:10:57;88.03;;;43.10;;
20966;SDS011;10642;50.682;18.510;2023-01-08T00:13:24;86.90;;;44.63;;
20966;SDS011;10642;50.682;18.510;2023-01-08T00:15:51;86.80;;;46.77;;
20966;SDS011;10642;50.682;18.510;2023-01-08T00:18:19;83.37;;;41.90;;
20966;SDS011;10642;50.682;18.510;2023-01-08T00:20:47;85.00;;;44.10;;
20966;SDS011;10642;50.682;18.510;2023-01-08T00:23:14;81.70;;;41.80;;
20966;SDS011;10642;50.682;18.510;2023-01-08T00:25:42;82.87;;;41.53;;
20966;SDS011;10642;50.682;18.510;2023-01-08T00:28:08;85.23;;;42.47;;
20966;SDS011;10642;50.682;18.510;2023-01-08T00:30:36;81.67;;;44.23;;
20966;SDS011;10642;50.682;18.510;2023-01-08T00:33:03;87.43;;;44.97;;
20966;SDS011;10642;50.682;18.510;2023-01-08T00:35:30;82.20;;;43.67;;
20966;SDS011;10642;50.682;18.510;2023-01-08T00:37:57;79.87;;;40.33;;
20966;SDS011;10642;50.682;18.510;2023-01-08T00:40:24;83.43;;;44.17;;
20966;SDS011;10642;50.682;18.510;2023-01-08T00:42:51;81.03;;;42.87;;
20966;SDS011;10642;50.682;18.510;2023-01-08T00:45:18;77.77;;;39.73;;
20966;SDS011;10642;50.682;18.510;2023-01-08T00:47:45;73.13;;;38.73;;
20966;SDS011;10642;50.682;18.510;2023-01-08T00:50:12;75.83;;;39.10;;
20966;SDS011;10642;50.682;18.510;2023-01-08T00:52:39;75.27;;;37.43;;
20966;SDS011;10642;50.682;18.510;2023-01-08T00:55:06;75.43;;;40.43;;
20966;SDS011;10642;50.682;18.510;2023-01-08T00:57:34;77.27;;;38.43;;
20966;SDS011;10642;50.682;18.510;2023-01-08T01:00:02;71.70;;;38.47;;
20966;SDS011;10642;50.682;18.510;2023-01-08T01:02:29;75.33;;;38.73;;
20966;SDS011;10642;50.682;18.510;2023-01-08T01:04:56;72.80;;;39.33;;
20966;SDS011;10642;50.682;18.510;2023-01-08T01:07:23;73.40;;;37.60;;
20966;SDS011;10642;50.682;18.510;2023-01-08T01:09:50;71.03;;;37.10;;
20966;SDS011;10642;50.682;18.510;2023-01-08T01:12:16;74.80;;;37.17;;
20966;SDS011;10642;50.682;18.510;2023-01-08T01:14:43;74.90;;;39.03;;
20966;SDS011;10642;50.682;18.510;2023-01-08T01:17:11;67.47;;;34.70;;
20966;SDS011;10642;50.682;18.510;2023-01-08T01:19:38;74.63;;;36.90;;
20966;SDS011;10642;50.682;18.510;2023-01-08T01:22:05;72.60;;;36.03;;
20966;SDS011;10642;50.682;18.510;2023-01-08T01:24:33;69.07;;;36.50;;
20966;SDS011;10642;50.682;18.510;2023-01-08T01:27:00;65.73;;;35.27;;
20966;SDS011;10642;50.682;18.510;2023-01-08T01:29:27;65.30;;;34.37;;
20966;SDS011;10642;50.682;18.510;2023-01-08T01:31:56;64.40;;;33.97;;
20966;SDS011;10642;50.682;18.510;2023-01-08T01:34:23;64.80;;;33.30;;
20966;SDS011;10642;50.682;18.510;2023-01-08T01:36:50;64.97;;;33.23;;
20966;SDS011;10642;50.682;18.510;2023-01-08T01:39:17;64.00;;;32.27;;
20966;SDS011;10642;50.682;18.510;2023-01-08T01:41:46;65.10;;;32.07;;
20966;SDS011;10642;50.682;18.510;2023-01-08T01:46:58;61.80;;;30.13;;
20966;SDS011;10642;50.682;18.510;2023-01-08T01:49:26;55.90;;;28.87;;
20966;SDS011;10642;50.682;18.510;2023-01-08T01:51:54;59.43;;;29.80;;
20966;SDS011;10642;50.682;18.510;2023-01-08T01:54:21;60.87;;;30.70;;
20966;SDS011;10642;50.682;18.510;2023-01-08T01:56:48;53.13;;;28.30;;
20966;SDS011;10642;50.682;18.510;2023-01-08T01:59:15;54.27;;;28.33;;
20966;SDS011;10642;50.682;18.510;2023-01-08T02:01:42;53.03;;;27.67;;
20966;SDS011;10642;50.682;18.510;2023-01-08T02:04:10;53.83;;;27.83;;
20966;SDS011;10642;50.682;18.510;2023-01-08T02:09:19;52.30;;;28.80;;
20966;SDS011;10642;50.682;18.510;2023-01-08T02:11:52;57.10;;;28.70;;
20966;SDS011;10642;50.682;18.510;2023-01-08T02:20:28;55.73;;;28.43;;
20966;SDS011;10642;50.682;18.510;2023-01-08T02:27:59;53.47;;;27.97;;
20966;SDS011;10642;50.682;18.510;2023-01-08T02:30:28;57.40;;;28.77;;
20966;SDS011;10642;50.682;18.510;2023-01-08T02:32:55;51.73;;;27.63;;
20966;SDS011;10642;50.682;18.510;2023-01-08T02:35:22;53.13;;;28.00;;
20966;SDS011;10642;50.682;18.510;2023-01-08T02:37:49;53.13;;;28.20;;
20966;SDS011;10642;50.682;18.510;2023-01-08T02:50:27;61.90;;;30.20;;
20966;SDS011;10642;50.682;18.510;2023-01-08T02:55:42;55.43;;;28.37;;
20966;SDS011;10642;50.682;18.510;2023-01-08T02:58:11;59.03;;;28.03;;
20966;SDS011;10642;50.682;18.510;2023-01-08T03:00:38;54.07;;;27.97;;
20966;SDS011;10642;50.682;18.510;2023-01-08T03:03:19;50.30;;;27.13;;
20966;SDS011;10642;50.682;18.510;2023-01-08T03:05:49;52.77;;;26.97;;
20966;SDS011;10642;50.682;18.510;2023-01-08T03:08:17;51.17;;;27.07;;
20966;SDS011;10642;50.682;18.510;2023-01-08T03:10:45;52.20;;;27.90;;
20966;SDS011;10642;50.682;18.510;2023-01-08T03:13:14;47.67;;;26.47;;
20966;SDS011;10642;50.682;18.510;2023-01-08T03:15:45;58.03;;;28.10;;
20966;SDS011;10642;50.682;18.510;2023-01-08T03:18:14;52.93;;;28.40;;
20966;SDS011;10642;50.682;18.510;2023-01-08T03:20:44;49.17;;;26.80;;
20966;SDS011;10642;50.682;18.510;2023-01-08T03:23:12;56.30;;;29.97;;
20966;SDS011;10642;50.682;18.510;2023-01-08T03:25:41;52.07;;;27.83;;
20966;SDS011;10642;50.682;18.510;2023-01-08T03:28:14;51.37;;;27.50;;
20966;SDS011;10642;50.682;18.510;2023-01-08T03:30:43;52.93;;;27.23;;
20966;SDS011;10642;50.682;18.510;2023-01-08T03:33:11;52.60;;;27.90;;
20966;SDS011;10642;50.682;18.510;2023-01-08T03:35:39;52.03;;;28.90;;
20966;SDS011;10642;50.682;18.510;2023-01-08T03:38:09;52.37;;;28.10;;
20966;SDS011;10642;50.682;18.510;2023-01-08T03:40:38;51.20;;;27.63;;
20966;SDS011;10642;50.682;18.510;2023-01-08T03:43:05;58.23;;;29.03;;
20966;SDS011;10642;50.682;18.510;2023-01-08T03:45:32;51.73;;;28.00;;
20966;SDS011;10642;50.682;18.510;2023-01-08T03:48:01;54.67;;;28.00;;
20966;SDS011;10642;50.682;18.510;2023-01-08T03:50:28;57.10;;;29.70;;
20966;SDS011;10642;50.682;18.510;2023-01-08T03:52:57;50.57;;;27.53;;
20966;SDS011;10642;50.682;18.510;2023-01-08T03:55:26;49.00;;;27.23;;
20966;SDS011;10642;50.682;18.510;2023-01-08T03:57:53;52.37;;;28.63;;
20966;SDS011;10642;50.682;18.510;2023-01-08T04:00:20;51.30;;;27.20;;
20966;SDS011;10642;50.682;18.510;2023-01-08T04:02:47;52.03;;;27.97;;
20966;SDS011;10642;50.682;18.510;2023-01-08T04:05:14;51.80;;;27.60;;
20966;SDS011;10642;50.682;18.510;2023-01-08T04:07:41;51.00;;;25.77;;
20966;SDS011;10642;50.682;18.510;2023-01-08T04:10:07;51.03;;;26.93;;
20966;SDS011;10642;50.682;18.510;2023-01-08T04:12:34;55.03;;;28.00;;
20966;SDS011;10642;50.682;18.510;2023-01-08T04:15:01;50.20;;;25.77;;
20966;SDS011;10642;50.682;18.510;2023-01-08T04:17:28;49.97;;;26.37;;
20966;SDS011;10642;50.682;18.510;2023-01-08T04:19:55;51.30;;;25.70;;
20966;SDS011;10642;50.682;18.510;2023-01-08T04:22:22;47.63;;;25.37;;
20966;SDS011;10642;50.682;18.510;2023-01-08T04:24:49;49.00;;;26.20;;
20966;SDS011;10642;50.682;18.510;2023-01-08T04:27:16;50.07;;;26.80;;
20966;SDS011;10642;50.682;18.510;2023-01-08T04:29:43;46.63;;;25.90;;
20966;SDS011;10642;50.682;18.510;2023-01-08T04:32:10;46.17;;;24.97;;
20966;SDS011;10642;50.682;18.510;2023-01-08T04:34:37;43.57;;;24.70;;
20966;SDS011;10642;50.682;18.510;2023-01-08T04:37:04;41.57;;;24.27;;
20966;SDS011;10642;50.682;18.510;2023-01-08T04:39:30;44.37;;;23.70;;
20966;SDS011;10642;50.682;18.510;2023-01-08T04:41:57;46.83;;;25.47;;
20966;SDS011;10642;50.682;18.510;2023-01-08T04:44:24;47.10;;;24.20;;
20966;SDS011;10642;50.682;18.510;2023-01-08T04:46:51;46.87;;;25.17;;
20966;SDS011;10642;50.682;18.510;2023-01-08T04:49:19;39.00;;;23.40;;
20966;SDS011;10642;50.682;18.510;2023-01-08T04:51:46;44.63;;;24.20;;
20966;SDS011;10642;50.682;18.510;2023-01-08T04:54:12;41.73;;;23.97;;
20966;SDS011;10642;50.682;18.510;2023-01-08T04:56:39;44.40;;;24.13;;
20966;SDS011;10642;50.682;18.510;2023-01-08T04:59:06;46.03;;;23.77;;
20966;SDS011;10642;50.682;18.510;2023-01-08T05:01:33;43.27;;;22.83;;
20966;SDS011;10642;50.682;18.510;2023-01-08T05:04:02;43.70;;;22.83;;
20966;SDS011;10642;50.682;18.510;2023-01-08T05:06:30;45.43;;;25.23;;
20966;SDS011;10642;50.682;18.510;2023-01-08T05:08:57;44.70;;;23.27;;
20966;SDS011;10642;50.682;18.510;2023-01-08T05:11:24;42.73;;;23.10;;
20966;SDS011;10642;50.682;18.510;2023-01-08T05:13:51;39.30;;;22.80;;
20966;SDS011;10642;50.682;18.510;2023-01-08T05:16:18;44.20;;;23.80;;
20966;SDS011;10642;50.682;18.510;2023-01-08T05:18:45;41.00;;;23.43;;
20966;SDS011;10642;50.682;18.510;2023-01-08T05:21:13;47.03;;;23.83;;
20966;SDS011;10642;50.682;18.510;2023-01-08T05:23:42;43.40;;;23.63;;
20966;SDS011;10642;50.682;18.510;2023-01-08T05:26:09;45.23;;;23.27;;
20966;SDS011;10642;50.682;18.510;2023-01-08T05:28:36;41.10;;;21.97;;
20966;SDS011;10642;50.682;18.510;2023-01-08T05:31:03;43.90;;;23.40;;
20966;SDS011;10642;50.682;18.510;2023-01-08T05:33:30;40.27;;;22.63;;
20966;SDS011;10642;50.682;18.510;2023-01-08T05:35:57;42.93;;;23.77;;
20966;SDS011;10642;50.682;18.510;2023-01-08T05:38:24;38.27;;;22.37;;
20966;SDS011;10642;50.682;18.510;2023-01-08T05:40:51;48.67;;;25.17;;
20966;SDS011;10642;50.682;18.510;2023-01-08T05:43:18;40.23;;;21.83;;
20966;SDS011;10642;50.682;18.510;2023-01-08T05:45:45;40.70;;;22.37;;
20966;SDS011;10642;50.682;18.510;2023-01-08T05:48:12;44.63;;;22.43;;
20966;SDS011;10642;50.682;18.510;2023-01-08T05:50:39;40.43;;;22.43;;
20966;SDS011;10642;50.682;18.510;2023-01-08T05:53:07;40.40;;;21.43;;
20966;SDS011;10642;50.682;18.510;2023-01-08T05:55:34;43.87;;;21.50;;
20966;SDS011;10642;50.682;18.510;2023-01-08T05:58:02;35.53;;;19.53;;
20966;SDS011;10642;50.682;18.510;2023-01-08T06:00:29;40.30;;;20.63;;
20966;SDS011;10642;50.682;18.510;2023-01-08T06:02:56;40.10;;;21.37;;
20966;SDS011;10642;50.682;18.510;2023-01-08T06:05:23;38.13;;;21.00;;
20966;SDS011;10642;50.682;18.510;2023-01-08T06:07:50;39.83;;;20.70;;
20966;SDS011;10642;50.682;18.510;2023-01-08T06:10:17;42.63;;;21.17;;
20966;SDS011;10642;50.682;18.510;2023-01-08T06:12:44;38.97;;;22.57;;
20966;SDS011;10642;50.682;18.510;2023-01-08T06:15:11;38.67;;;20.87;;
20966;SDS011;10642;50.682;18.510;2023-01-08T06:17:38;42.50;;;21.43;;
20966;SDS011;10642;50.682;18.510;2023-01-08T06:20:05;34.63;;;18.80;;
20966;SDS011;10642;50.682;18.510;2023-01-08T06:22:33;36.17;;;20.67;;
20966;SDS011;10642;50.682;18.510;2023-01-08T06:25:00;34.87;;;19.30;;
20966;SDS011;10642;50.682;18.510;2023-01-08T06:27:27;34.23;;;17.43;;
20966;SDS011;10642;50.682;18.510;2023-01-08T06:29:54;35.23;;;20.10;;
20966;SDS011;10642;50.682;18.510;2023-01-08T06:32:21;37.03;;;18.87;;
20966;SDS011;10642;50.682;18.510;2023-01-08T06:34:48;35.73;;;19.53;;
20966;SDS011;10642;50.682;18.510;2023-01-08T06:37:15;36.43;;;19.90;;
20966;SDS011;10642;50.682;18.510;2023-01-08T06:39:42;31.97;;;19.17;;
20966;SDS011;10642;50.682;18.510;2023-01-08T06:42:09;35.10;;;19.37;;
20966;SDS011;10642;50.682;18.510;2023-01-08T06:44:36;37.63;;;20.60;;
20966;SDS011;10642;50.682;18.510;2023-01-08T06:47:03;38.17;;;20.43;;
20966;SDS011;10642;50.682;18.510;2023-01-08T06:49:30;34.53;;;20.33;;
20966;SDS011;10642;50.682;18.510;2023-01-08T06:51:57;34.70;;;18.57;;
20966;SDS011;10642;50.682;18.510;2023-01-08T06:54:24;39.17;;;20.30;;
20966;SDS011;10642;50.682;18.510;2023-01-08T06:56:51;38.20;;;20.53;;
20966;SDS011;10642;50.682;18.510;2023-01-08T06:59:20;36.77;;;20.23;;
20966;SDS011;10642;50.682;18.510;2023-01-08T07:01:47;36.93;;;20.93;;
20966;SDS011;10642;50.682;18.510;2023-01-08T07:04:14;37.80;;;21.10;;
20966;SDS011;10642;50.682;18.510;2023-01-08T07:06:41;42.37;;;20.50;;
20966;SDS011;10642;50.682;18.510;2023-01-08T07:09:12;38.47;;;22.13;;
20966;SDS011;10642;50.682;18.510;2023-01-08T07:11:39;36.43;;;19.43;;
20966;SDS011;10642;50.682;18.510;2023-01-08T07:14:07;38.07;;;20.30;;
20966;SDS011;10642;50.682;18.510;2023-01-08T07:16:34;37.17;;;20.67;;
20966;SDS011;10642;50.682;18.510;2023-01-08T07:19:01;38.17;;;20.50;;
20966;SDS011;10642;50.682;18.510;2023-01-08T07:21:28;39.23;;;20.10;;
20966;SDS011;10642;50.682;18.510;2023-01-08T07:23:54;39.87;;;20.43;;
20966;SDS011;10642;50.682;18.510;2023-01-08T07:26:21;44.00;;;22.13;;
20966;SDS011;10642;50.682;18.510;2023-01-08T07:28:48;39.63;;;21.40;;
20966;SDS011;10642;50.682;18.510;2023-01-08T07:31:15;41.63;;;22.70;;
20966;SDS011;10642;50.682;18.510;2023-01-08T07:33:42;41.50;;;21.40;;
20966;SDS011;10642;50.682;18.510;2023-01-08T07:36:09;41.37;;;21.80;;
20966;SDS011;10642;50.682;18.510;2023-01-08T07:38:36;40.67;;;22.07;;
20966;SDS011;10642;50.682;18.510;2023-01-08T07:41:03;40.67;;;21.57;;
20966;SDS011;10642;50.682;18.510;2023-01-08T07:43:30;39.57;;;21.53;;
20966;SDS011;10642;50.682;18.510;2023-01-08T07:45:57;35.90;;;20.77;;
20966;SDS011;10642;50.682;18.510;2023-01-08T07:48:24;42.10;;;21.83;;
20966;SDS011;10642;50.682;18.510;2023-01-08T07:50:51;33.27;;;19.97;;
20966;SDS011;10642;50.682;18.510;2023-01-08T07:53:18;41.40;;;22.17;;
20966;SDS011;10642;50.682;18.510;2023-01-08T07:55:45;39.73;;;21.10;;
20966;SDS011;10642;50.682;18.510;2023-01-08T07:58:13;41.57;;;21.27;;
20966;SDS011;10642;50.682;18.510;2023-01-08T08:00:40;43.83;;;23.20;;
20966;SDS011;10642;50.682;18.510;2023-01-08T08:03:08;35.30;;;20.33;;
20966;SDS011;10642;50.682;18.510;2023-01-08T08:05:37;40.80;;;22.13;;
20966;SDS011;10642;50.682;18.510;2023-01-08T08:08:08;37.70;;;21.93;;
20966;SDS011;10642;50.682;18.510;2023-01-08T08:10:36;35.87;;;20.10;;
20966;SDS011;10642;50.682;18.510;2023-01-08T08:13:03;39.27;;;20.73;;
20966;SDS011;10642;50.682;18.510;2023-01-08T08:15:31;37.40;;;19.60;;
20966;SDS011;10642;50.682;18.510;2023-01-08T08:17:58;41.03;;;20.90;;
20966;SDS011;10642;50.682;18.510;2023-01-08T08:20:25;36.43;;;20.03;;
20966;SDS011;10642;50.682;18.510;2023-01-08T08:22:59;40.47;;;20.77;;
20966;SDS011;10642;50.682;18.510;2023-01-08T08:25:28;36.53;;;19.03;;
20966;SDS011;10642;50.682;18.510;2023-01-08T08:27:56;35.93;;;18.97;;
20966;SDS011;10642;50.682;18.510;2023-01-08T08:30:24;36.47;;;20.63;;
20966;SDS011;10642;50.682;18.510;2023-01-08T08:32:51;35.63;;;18.67;;
20966;SDS011;10642;50.682;18.510;2023-01-08T08:35:18;36.77;;;21.10;;
20966;SDS011;10642;50.682;18.510;2023-01-08T08:37:45;40.40;;;20.63;;
20966;SDS011;10642;50.682;18.510;2023-01-08T08:40:12;37.50;;;20.23;;
20966;SDS011;10642;50.682;18.510;2023-01-08T08:42:39;36.00;;;18.40;;
20966;SDS011;10642;50.682;18.510;2023-01-08T08:45:06;32.40;;;18.27;;
20966;SDS011;10642;50.682;18.510;2023-01-08T08:47:33;40.63;;;18.20;;
20966;SDS011;10642;50.682;18.510;2023-01-08T08:50:00;36.27;;;18.43;;
20966;SDS011;10642;50.682;18.510;2023-01-08T08:52:28;38.97;;;18.73;;
20966;SDS011;10642;50.682;18.510;2023-01-08T08:54:55;34.77;;;18.77;;
20966;SDS011;10642;50.682;18.510;2023-01-08T08:57:23;33.50;;;17.30;;
20966;SDS011;10642;50.682;18.510;2023-01-08T08:59:50;35.87;;;16.97;;
20966;SDS011;10642;50.682;18.510;2023-01-08T09:02:17;34.17;;;18.13;;
20966;SDS011;10642;50.682;18.510;2023-01-08T09:04:44;32.47;;;18.90;;
20966;SDS011;10642;50.682;18.510;2023-01-08T09:07:12;37.43;;;19.07;;
20966;SDS011;10642;50.682;18.510;2023-01-08T09:09:38;37.07;;;18.97;;
20966;SDS011;10642;50.682;18.510;2023-01-08T09:12:05;32.73;;;17.60;;
20966;SDS011;10642;50.682;18.510;2023-01-08T09:14:33;34.40;;;20.23;;
20966;SDS011;10642;50.682;18.510;2023-01-08T09:17:00;35.17;;;19.37;;
20966;SDS011;10642;50.682;18.510;2023-01-08T09:19:27;37.73;;;19.73;;
20966;SDS011;10642;50.682;18.510;2023-01-08T09:21:54;40.43;;;19.10;;
20966;SDS011;10642;50.682;18.510;2023-01-08T09:24:21;35.10;;;19.10;;
20966;SDS011;10642;50.682;18.510;2023-01-08T09:26:47;34.33;;;19.47;;
20966;SDS011;10642;50.682;18.510;2023-01-08T09:29:14;37.17;;;20.37;;
20966;SDS011;10642;50.682;18.510;2023-01-08T09:31:42;32.83;;;18.77;;
20966;SDS011;10642;50.682;18.510;2023-01-08T09:34:09;32.07;;;17.53;;
20966;SDS011;10642;50.682;18.510;2023-01-08T09:36:36;34.57;;;19.83;;
20966;SDS011;10642;50.682;18.510;2023-01-08T09:39:03;36.63;;;19.53;;
20966;SDS011;10642;50.682;18.510;2023-01-08T09:41:30;35.47;;;19.37;;
20966;SDS011;10642;50.682;18.510;2023-01-08T09:43:58;37.07;;;19.33;;
20966;SDS011;10642;50.682;18.510;2023-01-08T09:46:27;32.37;;;17.70;;
20966;SDS011;10642;50.682;18.510;2023-01-08T09:48:55;38.47;;;20.10;;
20966;SDS011;10642;50.682;18.510;2023-01-08T09:51:26;34.40;;;19.17;;
20966;SDS011;10642;50.682;18.510;2023-01-08T09:53:56;37.03;;;19.97;;
20966;SDS011;10642;50.682;18.510;2023-01-08T09:56:23;40.80;;;19.30;;
20966;SDS011;10642;50.682;18.510;2023-01-08T09:58:58;34.73;;;19.93;;
20966;SDS011;10642;50.682;18.510;2023-01-08T10:01:26;36.00;;;19.03;;
20966;SDS011;10642;50.682;18.510;2023-01-08T10:04:04;37.37;;;19.00;;
20966;SDS011;10642;50.682;18.510;2023-01-08T10:06:32;37.87;;;20.10;;
20966;SDS011;10642;50.682;18.510;2023-01-08T10:08:59;41.67;;;21.00;;
20966;SDS011;10642;50.682;18.510;2023-01-08T10:11:27;36.43;;;19.03;;
20966;SDS011;10642;50.682;18.510;2023-01-08T10:13:56;36.13;;;19.37;;
20966;SDS011;10642;50.682;18.510;2023-01-08T10:16:33;34.33;;;18.07;;
20966;SDS011;10642;50.682;18.510;2023-01-08T10:19:02;34.37;;;19.87;;
20966;SDS011;10642;50.682;18.510;2023-01-08T10:21:30;39.23;;;20.80;;
20966;SDS011;10642;50.682;18.510;2023-01-08T10:23:58;33.77;;;17.57;;
20966;SDS011;10642;50.682;18.510;2023-01-08T10:26:26;38.17;;;17.97;;
20966;SDS011;10642;50.682;18.510;2023-01-08T10:29:04;36.77;;;18.17;;
20966;SDS011;10642;50.682;18.510;2023-01-08T10:31:31;36.03;;;19.27;;
20966;SDS011;10642;50.682;18.510;2023-01-08T10:34:06;40.50;;;18.83;;
20966;SDS011;10642;50.682;18.510;2023-01-08T10:36:37;39.20;;;19.23;;
20966;SDS011;10642;50.682;18.510;2023-01-08T10:39:04;33.23;;;18.63;;
20966;SDS011;10642;50.682;18.510;2023-01-08T10:41:36;35.70;;;19.17;;
20966;SDS011;10642;50.682;18.510;2023-01-08T10:44:03;38.10;;;19.20;;
20966;SDS011;10642;50.682;18.510;2023-01-08T10:46:31;42.00;;;22.03;;
20966;SDS011;10642;50.682;18.510;2023-01-08T10:49:03;37.87;;;21.27;;
20966;SDS011;10642;50.682;18.510;2023-01-08T10:51:32;37.53;;;18.97;;
20966;SDS011;10642;50.682;18.510;2023-01-08T10:54:00;39.03;;;20.30;;
20966;SDS011;10642;50.682;18.510;2023-01-08T10:56:28;36.33;;;18.57;;
20966;SDS011;10642;50.682;18.510;2023-01-08T10:58:55;36.50;;;20.33;;
20966;SDS011;10642;50.682;18.510;2023-01-08T11:01:25;41.00;;;19.87;;
20966;SDS011;10642;50.682;18.510;2023-01-08T11:03:58;38.10;;;20.17;;
20966;SDS011;10642;50.682;18.510;2023-01-08T11:06:26;39.80;;;20.43;;
20966;SDS011;10642;50.682;18.510;2023-01-08T11:08:59;44.70;;;21.43;;
20966;SDS011;10642;50.682;18.510;2023-01-08T11:11:32;39.27;;;21.43;;
20966;SDS011;10642;50.682;18.510;2023-01-08T11:14:02;44.67;;;24.23;;
20966;SDS011;10642;50.682;18.510;2023-01-08T11:16:30;39.70;;;22.10;;
20966;SDS011;10642;50.682;18.510;2023-01-08T11:18:57;47.27;;;23.23;;
20966;SDS011;10642;50.682;18.510;2023-01-08T11:21:26;42.40;;;20.73;;
20966;SDS011;10642;50.682;18.510;2023-01-08T11:26:35;39.80;;;21.07;;
20966;SDS011;10642;50.682;18.510;2023-01-08T11:29:05;41.13;;;20.53;;
20966;SDS011;10642;50.682;18.510;2023-01-08T11:31:37;42.67;;;21.77;;
20966;SDS011;10642;50.682;18.510;2023-01-08T11:34:07;36.83;;;20.20;;
20966;SDS011;10642;50.682;18.510;2023-01-08T11:36:40;38.80;;;20.47;;
20966;SDS011;10642;50.682;18.510;2023-01-08T11:39:08;42.67;;;23.00;;
20966;SDS011;10642;50.682;18.510;2023-01-08T11:41:43;39.83;;;21.23;;
20966;SDS011;10642;50.682;18.510;2023-01-08T11:49:34;41.83;;;20.93;;
20966;SDS011;10642;50.682;18.510;2023-01-08T11:57:37;35.20;;;22.07;;
20966;SDS011;10642;50.682;18.510;2023-01-08T12:00:17;35.67;;;22.87;;
20966;SDS011;10642;50.682;18.510;2023-01-08T12:02:53;33.53;;;18.90;;
20966;SDS011;10642;50.682;18.510;2023-01-08T12:08:11;36.47;;;21.83;;
20966;SDS011;10642;50.682;18.510;2023-01-08T12:10:43;35.57;;;20.20;;
20966;SDS011;10642;50.682;18.510;2023-01-08T12:18:45;34.63;;;18.23;;
20966;SDS011;10642;50.682;18.510;2023-01-08T12:23:59;34.23;;;18.20;;
20966;SDS011;10642;50.682;18.510;2023-01-08T12:26:45;36.73;;;20.40;;
20966;SDS011;10642;50.682;18.510;2023-01-08T12:29:21;35.33;;;18.70;;
20966;SDS011;10642;50.682;18.510;2023-01-08T12:34:40;33.23;;;16.37;;
20966;SDS011;10642;50.682;18.510;2023-01-08T12:37:14;41.33;;;18.33;;
20966;SDS011;10642;50.682;18.510;2023-01-08T12:39:44;32.47;;;17.97;;
20966;SDS011;10642;50.682;18.510;2023-01-08T12:42:14;31.77;;;17.43;;
20966;SDS011;10642;50.682;18.510;2023-01-08T12:44:43;38.37;;;19.77;;
20966;SDS011;10642;50.682;18.510;2023-01-08T12:47:15;32.77;;;17.13;;
20966;SDS011;10642;50.682;18.510;2023-01-08T12:49:45;36.93;;;17.60;;
20966;SDS011;10642;50.682;18.510;2023-01-08T12:52:15;31.30;;;18.67;;
20966;SDS011;10642;50.682;18.510;2023-01-08T12:57:27;32.40;;;17.43;;
20966;SDS011;10642;50.682;18.510;2023-01-08T13:08:18;33.27;;;16.77;;
20966;SDS011;10642;50.682;18.510;2023-01-08T13:10:34;30.53;;;15.37;;
20966;SDS011;10642;50.682;18.510;2023-01-08T13:13:01;27.17;;;15.77;;
20966;SDS011;10642;50.682;18.510;2023-01-08T13:15:29;24.03;;;13.80;;
20966;SDS011;10642;50.682;18.510;2023-01-08T13:18:00;27.30;;;15.27;;
20966;SDS011;10642;50.682;18.510;2023-01-08T13:20:30;27.60;;;14.80;;
20966;SDS011;10642;50.682;18.510;2023-01-08T13:23:04;25.67;;;14.50;;
20966;SDS011;10642;50.682;18.510;2023-01-08T13:27:58;24.90;;;13.10;;
20966;SDS011;10642;50.682;18.510;2023-01-08T13:32:56;24.87;;;13.07;;
20966;SDS011;10642;50.682;18.510;2023-01-08T13:35:24;26.23;;;15.13;;
20966;SDS011;10642;50.682;18.510;2023-01-08T13:38:03;28.57;;;15.00;;
20966;SDS011;10642;50.682;18.510;2023-01-08T13:40:35;27.03;;;14.47;;
20966;SDS011;10642;50.682;18.510;2023-01-08T13:43:03;26.57;;;15.00;;
20966;SDS011;10642;50.682;18.510;2023-01-08T13:45:31;28.00;;;15.37;;
20966;SDS011;10642;50.682;18.510;2023-01-08T13:47:58;25.13;;;13.97;;
20966;SDS011;10642;50.682;18.510;2023-01-08T13:50:26;25.10;;;13.77;;
20966;SDS011;10642;50.682;18.510;2023-01-08T13:52:57;28.80;;;14.63;;
20966;SDS011;10642;50.682;18.510;2023-01-08T13:55:28;28.63;;;15.40;;
20966;SDS011;10642;50.682;18.510;2023-01-08T13:57:57;27.83;;;14.87;;
20966;SDS011;10642;50.682;18.510;2023-01-08T14:00:47;27.90;;;14.40;;
20966;SDS011;10642;50.682;18.510;2023-01-08T14:03:23;27.20;;;14.13;;
20966;SDS011;10642;50.682;18.510;2023-01-08T14:05:50;28.53;;;13.70;;
20966;SDS011;10642;50.682;18.510;2023-01-08T14:08:20;28.90;;;14.97;;
20966;SDS011;10642;50.682;18.510;2023-01-08T14:10:48;32.03;;;14.40;;
20966;SDS011;10642;50.682;18.510;2023-01-08T14:13:15;27.20;;;14.60;;
20966;SDS011;10642;50.682;18.510;2023-01-08T14:15:43;31.07;;;16.63;;
20966;SDS011;10642;50.682;18.510;2023-01-08T14:18:10;30.13;;;16.23;;
20966;SDS011;10642;50.682;18.510;2023-01-08T14:20:39;26.20;;;13.57;;
20966;SDS011;10642;50.682;18.510;2023-01-08T14:23:08;29.97;;;17.00;;
20966;SDS011;10642;50.682;18.510;2023-01-08T14:25:36;27.90;;;14.90;;
20966;SDS011;10642;50.682;18.510;2023-01-08T14:28:04;26.37;;;14.20;;
20966;SDS011;10642;50.682;18.510;2023-01-08T14:30:31;37.83;;;17.63;;
20966;SDS011;10642;50.682;18.510;2023-01-08T14:32:58;30.70;;;14.87;;
20966;SDS011;10642;50.682;18.510;2023-01-08T14:35:30;26.23;;;14.77;;
20966;SDS011;10642;50.682;18.510;2023-01-08T14:37:58;31.73;;;14.80;;
20966;SDS011;10642;50.682;18.510;2023-01-08T14:40:30;29.73;;;16.40;;
20966;SDS011;10642;50.682;18.510;2023-01-08T14:42:57;25.90;;;14.77;;
20966;SDS011;10642;50.682;18.510;2023-01-08T14:45:28;26.03;;;14.30;;
20966;SDS011;10642;50.682;18.510;2023-01-08T14:48:07;30.10;;;15.03;;
20966;SDS011;10642;50.682;18.510;2023-01-08T14:50:36;26.37;;;13.43;;
20966;SDS011;10642;50.682;18.510;2023-01-08T14:53:04;25.47;;;13.20;;
20966;SDS011;10642;50.682;18.510;2023-01-08T14:55:33;27.80;;;14.17;;
20966;SDS011;10642;50.682;18.510;2023-01-08T14:58:01;28.90;;;14.13;;
20966;SDS011;10642;50.682;18.510;2023-01-08T15:00:29;23.43;;;12.93;;
20966;SDS011;10642;50.682;18.510;2023-01-08T15:02:56;27.83;;;13.23;;
20966;SDS011;10642;50.682;18.510;2023-01-08T15:05:30;25.13;;;12.03;;
20966;SDS011;10642;50.682;18.510;2023-01-08T15:12:58;27.30;;;14.17;;
20966;SDS011;10642;50.682;18.510;2023-01-08T15:15:26;26.90;;;13.83;;
20966;SDS011;10642;50.682;18.510;2023-01-08T15:17:53;28.23;;;14.80;;
20966;SDS011;10642;50.682;18.510;2023-01-08T15:20:21;27.43;;;14.70;;
20966;SDS011;10642;50.682;18.510;2023-01-08T15:22:50;24.87;;;13.37;;
20966;SDS011;10642;50.682;18.510;2023-01-08T15:25:20;27.73;;;14.37;;
20966;SDS011;10642;50.682;18.510;2023-01-08T15:27:52;30.27;;;14.23;;
20966;SDS011;10642;50.682;18.510;2023-01-08T15:30:23;26.03;;;14.63;;
20966;SDS011;10642;50.682;18.510;2023-01-08T15:32:50;29.63;;;15.47;;